Time;durP1;ratioP1;P1;durP2;ratioP2;P2;SDS_P1;SDS_P2;PMS_P1;PMS_P2;Temp;Humidity;BMP_temperature;BMP_pressure;BME280_temperature;BME280_humidity;BME280_pressure;Samples;Min_cycle;Max_cycle;Signal;HPM_P1;HPM_P2
2022/04/23 00:00:10;;;;;;;13.57;11.48;;;11.80;99.90;;;;;;5014868;28;20092;-83
2022/04/23 00:02:35;;;;;;;13.70;10.50;;;11.60;99.90;;;;;;5031806;28;20033;-85
2022/04/23 00:05:01;;;;;;;14.18;11.60;;;11.60;99.90;;;;;;5013966;28;20052;-84
2022/04/23 00:07:27;;;;;;;12.68;10.43;;;11.60;99.90;;;;;;4999874;28;20050;-84
2022/04/23 00:09:53;;;;;;;15.77;11.15;;;11.50;99.90;;;;;;5054451;28;20045;-81
2022/04/23 00:12:19;;;;;;;14.32;10.23;;;11.40;99.90;;;;;;5054475;28;20117;-82
2022/04/23 00:14:45;;;;;;;12.85;10.82;;;11.50;99.90;;;;;;5031082;28;20091;-83
2022/04/23 00:17:11;;;;;;;13.68;9.77;;;11.60;99.90;;;;;;5013521;28;20497;-84
2022/04/23 00:19:36;;;;;;;13.15;10.25;;;11.50;99.90;;;;;;5031353;28;20132;-85
2022/04/23 00:22:02;;;;;;;12.55;10.00;;;11.50;99.90;;;;;;5013398;28;20072;-83
2022/04/23 00:24:28;;;;;;;13.18;8.98;;;11.50;99.90;;;;;;5013888;28;20049;-84
2022/04/23 00:26:54;;;;;;;12.88;9.55;;;11.60;99.90;;;;;;5030456;28;20132;-83
2022/04/23 00:29:20;;;;;;;11.68;9.55;;;11.40;99.90;;;;;;5013682;28;20049;-82
2022/04/23 00:31:45;;;;;;;13.82;9.20;;;11.60;99.90;;;;;;5028940;28;20072;-83
2022/04/23 00:34:11;;;;;;;11.75;9.00;;;11.60;99.90;;;;;;5022829;28;20060;-83
2022/04/23 00:36:36;;;;;;;15.57;9.80;;;11.40;99.90;;;;;;5015784;28;20049;-84
2022/04/23 00:39:05;;;;;;;11.98;9.02;;;11.30;99.90;;;;;;5038920;28;20056;-83
2022/04/23 00:41:46;;;;;;;12.88;8.85;;;11.20;99.90;;;;;;5006297;28;20456;-83
2022/04/23 00:44:12;;;;;;;14.68;10.18;;;11.20;99.90;;;;;;5031378;28;20046;-84
2022/04/23 00:46:38;;;;;;;13.90;10.40;;;11.10;99.90;;;;;;5014158;28;20120;-84
2022/04/23 00:49:05;;;;;;;12.50;9.95;;;11.00;99.90;;;;;;5030759;28;20073;-84
2022/04/23 00:51:32;;;;;;;14.25;9.65;;;10.90;99.90;;;;;;5030986;28;20116;-84
2022/04/23 00:53:59;;;;;;;15.52;10.18;;;10.70;99.90;;;;;;5029365;28;20045;-83
2022/04/23 00:56:25;;;;;;;16.48;7.82;;;10.80;99.90;;;;;;5013327;28;20089;-84
2022/04/23 00:58:51;;;;;;;17.05;9.65;;;10.70;99.90;;;;;;5013000;28;20056;-85
2022/04/23 01:01:22;;;;;;;12.85;10.18;;;10.60;99.90;;;;;;5028415;28;20045;-84
2022/04/23 01:03:48;;;;;;;12.85;9.63;;;10.80;99.90;;;;;;5015438;28;20041;-84
2022/04/23 01:06:14;;;;;;;15.63;8.98;;;10.80;99.90;;;;;;5033605;28;20107;-84
2022/04/23 01:08:40;;;;;;;13.50;10.52;;;10.70;99.90;;;;;;5016801;28;20454;-83
2022/04/23 01:11:05;;;;;;;13.50;9.60;;;10.50;99.90;;;;;;5015476;28;20067;-85
2022/04/23 01:13:32;;;;;;;12.70;9.75;;;10.60;99.90;;;;;;5039809;28;20079;-84
2022/04/23 01:15:58;;;;;;;13.80;11.13;;;10.60;99.90;;;;;;5036620;28;20466;-81
2022/04/23 01:18:24;;;;;;;12.95;8.55;;;10.50;99.90;;;;;;5017150;28;20041;-85
2022/04/23 01:20:49;;;;;;;12.90;8.63;;;10.60;99.90;;;;;;5032796;28;20037;-86
2022/04/23 01:23:15;;;;;;;11.00;8.77;;;10.50;99.90;;;;;;5034169;28;20072;-84
2022/04/23 01:25:41;;;;;;;15.50;10.73;;;10.60;99.90;;;;;;5035794;28;20029;-82
2022/04/23 01:28:07;;;;;;;17.35;11.93;;;10.60;99.90;;;;;;5057232;28;20048;-83
2022/04/23 01:30:32;;;;;;;14.00;11.55;;;10.50;99.90;;;;;;5040155;28;20045;-83
2022/04/23 01:32:58;;;;;;;12.27;8.82;;;10.40;99.90;;;;;;5020253;28;20112;-82
2022/04/23 01:35:25;;;;;;;18.40;11.73;;;10.50;99.90;;;;;;5033520;28;20038;-84
2022/04/23 01:37:50;;;;;;;16.67;12.05;;;10.50;99.90;;;;;;5033658;28;20046;-83
2022/04/23 01:40:16;;;;;;;12.88;8.95;;;10.40;99.90;;;;;;4999221;28;20041;-84
2022/04/23 01:42:43;;;;;;;14.07;11.13;;;10.50;99.90;;;;;;5033508;28;20049;-83
2022/04/23 01:45:08;;;;;;;13.88;11.32;;;10.40;99.90;;;;;;5033012;28;20082;-83
2022/04/23 01:47:34;;;;;;;13.57;9.57;;;10.30;99.90;;;;;;5033194;28;20045;-84
2022/04/23 01:50:00;;;;;;;19.63;12.95;;;10.30;99.90;;;;;;5015722;28;20053;-82
2022/04/23 01:52:26;;;;;;;18.65;12.00;;;10.30;99.90;;;;;;5033202;28;20044;-83
2022/04/23 01:54:51;;;;;;;15.02;10.25;;;10.30;99.90;;;;;;5033394;28;20085;-84
2022/04/23 01:57:17;;;;;;;18.90;12.63;;;10.30;99.90;;;;;;5014517;28;20057;-84
2022/04/23 01:59:42;;;;;;;16.00;12.60;;;10.30;99.90;;;;;;5033308;28;20049;-84
2022/04/23 02:02:08;;;;;;;15.70;10.70;;;10.10;99.90;;;;;;5032513;28;20041;-83
2022/04/23 02:04:34;;;;;;;18.10;12.60;;;10.30;99.90;;;;;;4999584;28;20056;-84
2022/04/23 02:06:59;;;;;;;17.05;12.05;;;10.00;99.90;;;;;;5033145;28;20497;-83
2022/04/23 02:09:25;;;;;;;17.23;12.20;;;9.90;99.90;;;;;;4998727;28;20478;-84
2022/04/23 02:11:51;;;;;;;15.73;10.73;;;9.90;99.90;;;;;;5032571;28;20052;-84
2022/04/23 02:14:17;;;;;;;16.15;13.02;;;10.10;99.90;;;;;;5014066;28;20053;-84
2022/04/23 02:16:43;;;;;;;18.48;12.63;;;10.00;99.90;;;;;;5015972;28;20068;-83
2022/04/23 02:19:09;;;;;;;17.90;13.52;;;9.80;99.90;;;;;;5016020;28;20053;-84
2022/04/23 02:21:34;;;;;;;21.67;14.02;;;9.60;99.90;;;;;;5033976;28;20140;-85
2022/04/23 02:24:03;;;;;;;20.17;12.45;;;9.60;99.90;;;;;;5034710;28;20091;-83
2022/04/23 02:26:29;;;;;;;18.08;13.73;;;9.80;99.90;;;;;;5032777;28;20053;-85
2022/04/23 02:28:55;;;;;;;19.35;13.98;;;9.80;99.90;;;;;;5015714;28;20564;-83
2022/04/23 02:31:20;;;;;;;18.05;14.38;;;9.90;99.90;;;;;;5033110;28;20393;-83
2022/04/23 02:33:46;;;;;;;19.88;13.98;;;9.80;99.90;;;;;;5016432;28;20048;-84
2022/04/23 02:36:12;;;;;;;20.85;14.38;;;9.70;99.90;;;;;;5032719;28;20045;-84
2022/04/23 02:38:40;;;;;;;20.63;15.38;;;9.50;99.90;;;;;;5033864;28;20085;-85
2022/04/23 02:41:06;;;;;;;21.10;12.63;;;9.60;99.90;;;;;;5026327;28;20129;-84
2022/04/23 02:43:35;;;;;;;17.15;13.32;;;9.80;99.90;;;;;;5039669;28;20077;-80
2022/04/23 02:46:02;;;;;;;21.40;14.88;;;9.60;99.90;;;;;;5039944;28;20052;-80
2022/04/23 02:48:28;;;;;;;15.15;9.60;;;9.50;99.90;;;;;;5040085;28;20041;-81
2022/04/23 02:50:54;;;;;;;19.33;14.85;;;9.50;99.90;;;;;;5032820;28;20046;-82
2022/04/23 02:53:20;;;;;;;21.15;15.02;;;9.40;99.90;;;;;;5010567;28;20042;-84
2022/04/23 02:55:46;;;;;;;18.67;14.90;;;9.50;99.90;;;;;;5012731;28;20046;-83
2022/04/23 02:58:12;;;;;;;19.13;12.07;;;9.40;99.90;;;;;;4994450;28;20394;-82
2022/04/23 03:00:39;;;;;;;20.75;15.40;;;9.60;99.90;;;;;;4994651;28;20049;-81
2022/04/23 03:03:07;;;;;;;20.88;14.65;;;9.30;99.90;;;;;;4994587;28;20056;-82
2022/04/23 03:05:32;;;;;;;21.92;15.27;;;9.20;99.90;;;;;;5011868;28;20092;-82
2022/04/23 03:08:01;;;;;;;18.00;13.98;;;9.40;99.90;;;;;;4994777;28;20085;-83
2022/04/23 03:10:27;;;;;;;16.35;12.32;;;9.40;99.90;;;;;;4994266;28;20429;-81
2022/04/23 03:12:55;;;;;;;22.25;14.68;;;9.30;99.90;;;;;;4978083;28;20103;-82
2022/04/23 03:15:21;;;;;;;20.70;14.95;;;9.20;99.90;;;;;;5011204;28;20054;-82
2022/04/23 03:17:47;;;;;;;19.83;14.43;;;9.30;99.90;;;;;;5012079;28;20049;-82
2022/04/23 03:20:13;;;;;;;19.00;15.18;;;9.10;99.90;;;;;;5010680;28;20088;-80
2022/04/23 03:22:39;;;;;;;19.73;15.07;;;9.30;99.90;;;;;;4994494;28;20469;-82
2022/04/23 03:25:09;;;;;;;21.30;16.15;;;9.40;99.90;;;;;;4994460;28;20046;-83
2022/04/23 03:27:35;;;;;;;20.23;13.32;;;9.30;99.90;;;;;;5011072;28;20046;-84
2022/04/23 03:30:00;;;;;;;20.33;14.77;;;9.30;99.90;;;;;;4977997;28;20364;-83
2022/04/23 03:32:26;;;;;;;20.02;15.65;;;9.20;99.90;;;;;;4993318;28;20041;-83
2022/04/23 03:34:52;;;;;;;23.15;16.55;;;9.20;99.90;;;;;;5005620;28;20132;-82
2022/04/23 03:37:18;;;;;;;16.92;12.63;;;9.10;99.90;;;;;;5020395;28;20101;-83
2022/04/23 03:39:47;;;;;;;24.98;15.52;;;9.20;99.90;;;;;;5011295;28;20441;-82
2022/04/23 03:42:12;;;;;;;17.60;14.57;;;9.20;99.90;;;;;;5003858;28;20041;-82
2022/04/23 03:44:38;;;;;;;22.00;15.18;;;9.10;99.90;;;;;;5000034;28;20042;-83
2022/04/23 03:47:04;;;;;;;17.15;12.30;;;9.10;99.90;;;;;;4994707;28;20050;-83
2022/04/23 03:49:30;;;;;;;21.63;14.77;;;9.00;99.90;;;;;;4995047;28;20088;-82
2022/04/23 03:51:56;;;;;;;18.48;15.15;;;8.90;99.90;;;;;;4994994;28;20482;-82
2022/04/23 03:54:22;;;;;;;14.90;8.25;;;8.80;99.90;;;;;;4978490;28;20046;-83
2022/04/23 03:56:48;;;;;;;24.73;16.58;;;9.00;99.90;;;;;;5018136;28;20049;-83
2022/04/23 03:59:14;;;;;;;22.50;15.80;;;8.80;99.90;;;;;;5032403;28;20089;-84
2022/04/23 04:01:40;;;;;;;20.85;14.20;;;8.80;99.90;;;;;;5002181;28;20038;-83
2022/04/23 04:04:06;;;;;;;17.17;14.20;;;9.00;99.90;;;;;;5008013;28;20054;-82
2022/04/23 04:06:33;;;;;;;24.77;16.02;;;8.80;99.90;;;;;;4992048;28;20042;-84
2022/04/23 04:08:58;;;;;;;20.60;15.18;;;8.80;99.90;;;;;;5011344;28;20050;-84
2022/04/23 04:11:24;;;;;;;18.30;15.32;;;8.70;99.90;;;;;;4977232;28;20402;-84
2022/04/23 04:13:50;;;;;;;23.70;15.85;;;8.70;99.90;;;;;;5011517;28;20054;-83
2022/04/23 04:16:17;;;;;;;23.35;16.23;;;8.70;99.90;;;;;;4994332;28;20076;-82
2022/04/23 04:18:45;;;;;;;21.73;13.20;;;8.60;99.90;;;;;;4993823;28;20410;-83
2022/04/23 04:21:10;;;;;;;19.02;14.82;;;8.70;99.90;;;;;;5011422;28;20104;-83
2022/04/23 04:23:36;;;;;;;18.23;13.23;;;8.70;99.90;;;;;;4977494;28;20050;-84
2022/04/23 04:26:02;;;;;;;18.10;11.23;;;8.90;99.90;;;;;;5011999;28;20090;-85
2022/04/23 04:28:27;;;;;;;18.60;12.93;;;8.90;99.90;;;;;;4993712;28;20049;-83
2022/04/23 04:33:37;;;;;;;19.17;14.88;;;8.90;99.90;;;;;;5010811;28;20058;-83
2022/04/23 04:36:03;;;;;;;15.65;12.40;;;8.80;99.90;;;;;;4977371;28;20050;-83
2022/04/23 04:38:30;;;;;;;14.73;12.63;;;8.90;99.90;;;;;;4978051;28;20069;-83
2022/04/23 04:40:56;;;;;;;16.73;14.05;;;8.90;99.90;;;;;;4997144;28;20136;-83
2022/04/23 04:43:22;;;;;;;16.35;12.70;;;9.00;99.90;;;;;;5014272;28;20085;-80
2022/04/23 04:45:48;;;;;;;13.68;10.88;;;9.10;99.90;;;;;;5014693;28;20089;-82
2022/04/23 04:48:13;;;;;;;17.73;13.70;;;9.20;99.90;;;;;;5014790;28;20123;-83
2022/04/23 04:50:39;;;;;;;12.52;9.77;;;9.40;99.90;;;;;;5014088;28;20077;-82
2022/04/23 04:53:04;;;;;;;14.70;13.13;;;9.90;99.90;;;;;;5014199;28;20056;-82
2022/04/23 04:55:33;;;;;;;16.85;11.68;;;10.30;99.90;;;;;;5013891;28;20081;-82
2022/04/23 04:57:59;;;;;;;14.13;9.57;;;10.40;99.90;;;;;;5015012;28;20079;-82
2022/04/23 05:00:25;;;;;;;16.05;12.70;;;11.00;99.90;;;;;;5013686;28;20045;-81
2022/04/23 05:02:50;;;;;;;15.07;12.23;;;11.00;99.90;;;;;;5014606;28;20566;-83
2022/04/23 05:05:16;;;;;;;13.65;11.93;;;11.10;99.90;;;;;;5014063;28;20505;-85
2022/04/23 05:07:42;;;;;;;12.13;9.10;;;11.40;99.90;;;;;;5034629;28;20065;-81
2022/04/23 05:10:08;;;;;;;12.20;9.68;;;11.50;99.90;;;;;;5024133;28;20034;-84
2022/04/23 05:12:33;;;;;;;12.25;10.70;;;11.60;99.90;;;;;;5021157;28;20053;-82
2022/04/23 05:14:59;;;;;;;13.05;10.52;;;12.00;99.90;;;;;;5036040;28;20057;-82
2022/04/23 05:17:25;;;;;;;13.13;10.73;;;12.20;99.90;;;;;;5020001;28;20061;-80
2022/04/23 05:19:50;;;;;;;11.95;10.27;;;12.00;99.90;;;;;;5007890;28;20052;-84
2022/04/23 05:22:16;;;;;;;11.68;8.82;;;12.20;99.90;;;;;;5014530;28;20054;-84
2022/04/23 05:24:41;;;;;;;13.65;12.25;;;12.30;99.90;;;;;;5013951;28;20054;-83
2022/04/23 05:27:07;;;;;;;12.30;11.00;;;11.90;99.90;;;;;;4979495;28;20042;-83
2022/04/23 05:29:33;;;;;;;13.40;12.10;;;12.40;99.90;;;;;;5012821;28;20084;-83
2022/04/23 05:31:58;;;;;;;13.18;11.07;;;12.10;99.90;;;;;;5014180;28;20045;-83
2022/04/23 05:34:28;;;;;;;12.77;10.95;;;12.20;99.90;;;;;;5013756;28;20045;-83
2022/04/23 05:36:54;;;;;;;11.90;10.70;;;12.20;99.90;;;;;;5013859;28;20119;-84
2022/04/23 05:39:20;;;;;;;12.70;10.90;;;12.60;99.90;;;;;;4979478;28;20454;-84
2022/04/23 05:41:45;;;;;;;12.73;11.45;;;12.60;99.90;;;;;;4995955;28;20057;-83
2022/04/23 05:44:11;;;;;;;14.50;11.20;;;13.10;99.90;;;;;;5013535;28;20061;-83
2022/04/23 05:46:36;;;;;;;13.15;11.02;;;12.60;99.90;;;;;;4995462;28;20085;-84
2022/04/23 05:49:02;;;;;;;12.18;10.98;;;12.70;99.90;;;;;;4997548;28;20046;-83
2022/04/23 05:51:29;;;;;;;13.75;10.98;;;12.60;99.90;;;;;;5013988;28;20045;-84
2022/04/23 05:53:55;;;;;;;12.68;11.35;;;12.60;99.90;;;;;;5015025;28;20054;-82
2022/04/23 05:56:20;;;;;;;12.00;10.70;;;12.80;99.90;;;;;;4995794;28;20509;-82
2022/04/23 05:58:46;;;;;;;12.13;10.57;;;12.80;99.90;;;;;;5012721;28;20471;-81
2022/04/23 06:01:12;;;;;;;11.75;10.55;;;12.90;99.90;;;;;;4996260;28;20141;-84
2022/04/23 06:03:38;;;;;;;10.98;8.98;;;13.50;99.90;;;;;;4995461;28;20049;-82
2022/04/23 06:06:04;;;;;;;11.52;9.93;;;14.00;99.90;;;;;;5012837;28;20133;-84
2022/04/23 06:08:29;;;;;;;12.32;8.95;;;13.50;99.90;;;;;;5013212;28;20077;-83
2022/04/23 06:10:55;;;;;;;12.45;11.20;;;13.80;99.90;;;;;;4994719;28;20042;-83
2022/04/23 06:13:21;;;;;;;11.45;10.35;;;14.00;99.90;;;;;;5012578;28;20045;-82
2022/04/23 06:15:46;;;;;;;10.88;9.82;;;14.70;99.90;;;;;;4995296;28;20076;-83
2022/04/23 06:18:12;;;;;;;10.77;9.77;;;15.20;99.90;;;;;;4995894;28;20041;-82
2022/04/23 06:20:38;;;;;;;10.10;9.07;;;14.30;99.90;;;;;;4995145;28;20081;-83
2022/04/23 06:23:04;;;;;;;12.40;11.07;;;14.50;99.90;;;;;;4995482;28;20061;-82
2022/04/23 06:25:31;;;;;;;11.48;10.40;;;13.90;99.90;;;;;;5034493;28;20069;-81
2022/04/23 06:27:57;;;;;;;10.18;9.15;;;14.20;99.90;;;;;;5036819;28;20034;-82
2022/04/23 06:30:23;;;;;;;13.43;11.07;;;15.30;99.90;;;;;;5019736;28;20037;-81
2022/04/23 06:32:48;;;;;;;12.05;10.73;;;14.60;99.90;;;;;;5018517;28;20033;-82
2022/04/23 06:35:14;;;;;;;12.98;11.32;;;15.30;99.90;;;;;;5028006;28;20056;-82
2022/04/23 06:37:40;;;;;;;11.98;10.80;;;14.70;99.90;;;;;;5004457;28;20073;-83
2022/04/23 06:40:11;;;;;;;11.80;10.63;;;14.90;99.90;;;;;;4981989;28;20054;-82
2022/04/23 06:42:37;;;;;;;11.77;10.23;;;14.70;99.90;;;;;;5017412;28;20060;-82
2022/04/23 06:45:04;;;;;;;10.55;9.50;;;15.30;99.90;;;;;;5006528;28;20042;-83
2022/04/23 06:47:30;;;;;;;11.48;10.43;;;15.40;99.90;;;;;;5012894;28;20050;-82
2022/04/23 06:49:59;;;;;;;13.73;10.82;;;15.40;99.90;;;;;;5012395;28;20042;-83
2022/04/23 06:52:25;;;;;;;13.30;11.25;;;15.50;99.90;;;;;;4994507;28;20046;-82
2022/04/23 06:54:54;;;;;;;12.77;11.43;;;15.40;99.90;;;;;;5012069;28;20056;-83
2022/04/23 06:57:22;;;;;;;11.77;10.32;;;15.50;99.90;;;;;;5012058;28;20107;-85
2022/04/23 06:59:49;;;;;;;13.13;11.30;;;15.10;99.90;;;;;;5011681;28;20044;-83
2022/04/23 07:02:15;;;;;;;11.35;10.15;;;15.20;99.90;;;;;;5012028;28;20509;-82
2022/04/23 07:04:41;;;;;;;12.45;10.63;;;15.00;99.90;;;;;;4978103;28;20077;-83
2022/04/23 07:07:06;;;;;;;16.20;11.07;;;15.10;99.90;;;;;;4994396;28;20138;-81
2022/04/23 07:09:32;;;;;;;10.82;9.73;;;15.70;99.90;;;;;;5012149;28;20045;-81
2022/04/23 07:11:58;;;;;;;13.13;10.60;;;15.90;99.90;;;;;;4994262;28;20129;-83
2022/04/23 07:14:25;;;;;;;11.60;10.50;;;16.50;99.90;;;;;;5013040;28;20057;-82
2022/04/23 07:16:51;;;;;;;24.88;12.25;;;15.90;99.90;;;;;;4978075;28;20049;-83
2022/04/23 07:19:16;;;;;;;9.00;8.10;;;15.90;99.90;;;;;;5017254;28;20041;-83
2022/04/23 07:21:42;;;;;;;11.98;10.63;;;16.10;99.90;;;;;;5004306;28;20046;-78
2022/04/23 07:24:10;;;;;;;13.02;10.77;;;15.90;99.90;;;;;;5006865;28;20062;-80
2022/04/23 07:26:36;;;;;;;11.77;10.52;;;16.00;99.90;;;;;;5002681;28;20054;-81
2022/04/23 07:29:05;;;;;;;10.85;9.07;;;15.60;99.90;;;;;;5003657;28;20116;-80
2022/04/23 07:31:30;;;;;;;9.15;7.82;;;16.10;99.90;;;;;;5003813;28;20046;-81
2022/04/23 07:39:25;;;;;;;12.30;10.35;;;16.60;99.90;;;;;;5022333;28;20084;-82
2022/04/23 07:41:54;;;;;;;12.35;10.57;;;16.30;99.90;;;;;;5018646;28;20065;-81
2022/04/23 07:44:21;;;;;;;11.48;10.38;;;16.20;99.90;;;;;;5032409;28;20080;-80
2022/04/23 07:46:47;;;;;;;10.77;9.63;;;16.30;99.90;;;;;;5036050;28;20045;-79
2022/04/23 07:49:13;;;;;;;11.77;10.55;;;15.70;99.90;;;;;;5041520;28;20029;-81
2022/04/23 07:51:40;;;;;;;11.50;10.27;;;16.00;99.90;;;;;;5033308;28;20084;-83
2022/04/23 07:54:05;;;;;;;10.52;9.52;;;15.70;99.90;;;;;;5016959;28;20267;-79
2022/04/23 07:56:31;;;;;;;10.70;9.60;;;16.30;99.90;;;;;;5020177;28;20132;-79
2022/04/23 07:58:57;;;;;;;12.95;10.50;;;16.30;99.90;;;;;;5003666;28;20057;-80
2022/04/23 08:01:22;;;;;;;11.80;10.43;;;16.50;99.90;;;;;;5016364;28;20458;-79
2022/04/23 08:03:48;;;;;;;13.50;10.73;;;16.30;99.90;;;;;;5021152;28;20732;-78
2022/04/23 08:06:15;;;;;;;15.60;10.27;;;16.30;99.90;;;;;;5019825;28;20379;-82
2022/04/23 08:08:41;;;;;;;11.93;10.18;;;16.80;99.90;;;;;;5015384;28;20092;-81
2022/04/23 08:11:07;;;;;;;12.73;10.38;;;16.20;99.90;;;;;;5018753;28;20038;-80
2022/04/23 08:13:33;;;;;;;13.75;10.20;;;16.30;99.90;;;;;;5022456;28;20037;-80
2022/04/23 08:15:59;;;;;;;10.63;9.55;;;16.50;99.90;;;;;;5025040;28;20107;-81
2022/04/23 08:18:26;;;;;;;12.10;9.43;;;16.70;99.90;;;;;;4989654;28;20046;-79
2022/04/23 08:20:52;;;;;;;11.68;10.45;;;17.30;99.90;;;;;;5006414;28;20107;-82
2022/04/23 08:23:19;;;;;;;11.45;10.45;;;16.70;99.90;;;;;;4992174;28;20073;-82
2022/04/23 08:25:46;;;;;;;11.38;10.10;;;16.90;99.90;;;;;;5008318;28;20461;-81
2022/04/23 08:30:58;;;;;;;13.32;9.50;;;17.40;99.90;;;;;;4993822;28;20058;-81
2022/04/23 08:33:24;;;;;;;15.38;9.27;;;16.90;99.90;;;;;;5006311;28;20041;-81
2022/04/23 08:35:50;;;;;;;13.88;10.38;;;16.20;99.90;;;;;;5024295;28;20079;-80
2022/04/23 08:38:16;;;;;;;11.23;10.13;;;16.50;99.90;;;;;;5006762;28;20042;-80
2022/04/23 08:40:45;;;;;;;11.13;9.85;;;16.60;99.90;;;;;;5022857;28;20471;-79
2022/04/23 08:43:14;;;;;;;13.10;10.85;;;17.40;99.70;;;;;;5025218;28;20045;-82
2022/04/23 08:45:39;;;;;;;11.50;10.43;;;17.90;98.90;;;;;;5010991;28;20056;-81
2022/04/23 08:48:09;;;;;;;10.35;9.18;;;17.20;99.20;;;;;;5010626;28;20546;-80
2022/04/23 08:50:38;;;;;;;10.63;9.52;;;17.90;98.40;;;;;;5021560;28;20046;-85
2022/04/23 08:53:23;;;;;;;11.20;9.98;;;17.60;97.30;;;;;;5025221;28;20449;-82
2022/04/23 08:55:49;;;;;;;13.00;10.68;;;17.20;97.80;;;;;;5005765;28;20046;-83
2022/04/23 08:58:14;;;;;;;12.23;9.80;;;17.60;97.80;;;;;;4990861;28;20042;-82
2022/04/23 09:00:40;;;;;;;11.73;9.95;;;17.70;97.60;;;;;;5010388;28;20050;-80
2022/04/23 09:03:11;;;;;;;10.85;9.85;;;18.50;97.90;;;;;;5029986;28;20056;-81
2022/04/23 09:05:37;;;;;;;11.05;9.82;;;17.80;96.70;;;;;;5016863;28;20025;-81
2022/04/23 09:08:05;;;;;;;9.77;7.97;;;17.70;96.10;;;;;;5043648;28;20080;-78
2022/04/23 09:10:54;;;;;;;13.98;9.43;;;17.90;95.80;;;;;;5010770;28;20059;-83
2022/04/23 09:13:26;;;;;;;11.63;9.57;;;17.10;95.90;;;;;;4983430;28;20406;-82
2022/04/23 09:24:45;;;;;;;9.20;7.55;;;17.80;94.90;;;;;;5014463;28;20129;-81
2022/04/23 09:27:11;;;;;;;11.13;9.38;;;18.20;94.20;;;;;;5021758;28;20125;-81
2022/04/23 09:29:37;;;;;;;11.05;8.13;;;18.20;94.00;;;;;;5028059;28;20146;-82
2022/04/23 09:32:17;;;;;;;10.15;9.15;;;18.30;93.40;;;;;;4991650;28;20053;-81
2022/04/23 09:34:42;;;;;;;9.73;8.60;;;18.20;93.60;;;;;;5025778;28;20037;-80
2022/04/23 09:37:09;;;;;;;14.07;9.40;;;18.40;93.70;;;;;;4992845;28;20200;-80
2022/04/23 09:39:36;;;;;;;9.55;7.90;;;18.40;93.90;;;;;;5017870;28;20526;-80
2022/04/23 09:42:17;;;;;;;10.75;8.45;;;18.40;92.70;;;;;;5001175;28;20041;-82
2022/04/23 09:44:44;;;;;;;9.93;8.13;;;18.40;92.90;;;;;;5030090;28;20417;-81
2022/04/23 09:47:10;;;;;;;10.82;8.60;;;18.50;92.50;;;;;;5009720;28;20394;-78
2022/04/23 09:49:38;;;;;;;10.80;9.80;;;18.30;92.80;;;;;;4989856;28;20124;-81
2022/04/23 09:52:06;;;;;;;12.85;9.00;;;17.90;93.30;;;;;;5021498;28;20386;-82
2022/04/23 09:54:32;;;;;;;11.65;9.98;;;18.20;93.30;;;;;;5007318;28;20077;-81
2022/04/23 09:56:58;;;;;;;11.55;9.00;;;18.20;93.70;;;;;;5004729;28;20489;-80
2022/04/23 09:59:23;;;;;;;12.15;9.35;;;18.40;93.40;;;;;;5024073;28;20123;-81
2022/04/23 10:01:50;;;;;;;15.15;11.73;;;18.30;93.50;;;;;;5021860;28;20493;-83
2022/04/23 10:04:25;;;;;;;12.50;10.65;;;18.40;93.80;;;;;;5020919;28;20049;-81
2022/04/23 10:06:56;;;;;;;9.93;8.30;;;18.00;92.50;;;;;;5003401;28;20099;-81
2022/04/23 10:09:26;;;;;;;11.95;10.05;;;18.10;93.00;;;;;;5004651;28;20511;-81
2022/04/23 10:12:05;;;;;;;11.85;9.75;;;18.20;93.60;;;;;;5021462;28;20049;-80
2022/04/23 10:14:35;;;;;;;9.43;8.45;;;18.60;93.80;;;;;;5004299;28;20054;-81
2022/04/23 10:17:04;;;;;;;10.23;9.23;;;18.70;92.20;;;;;;5014476;28;20129;-81
2022/04/23 10:19:29;;;;;;;8.00;7.15;;;18.90;91.70;;;;;;5003734;28;20052;-81
2022/04/23 10:22:19;;;;;;;11.73;9.88;;;19.70;91.90;;;;;;5010969;28;20053;-81
2022/04/23 10:25:13;;;;;;;11.10;9.10;;;17.90;91.90;;;;;;5054805;28;20036;-81
2022/04/23 10:27:39;;;;;;;12.03;8.00;;;18.20;92.40;;;;;;5010748;28;20079;-81
2022/04/23 10:30:06;;;;;;;12.48;9.40;;;19.10;91.40;;;;;;5014434;28;20514;-84
2022/04/23 10:32:41;;;;;;;15.90;10.30;;;18.50;92.30;;;;;;5001218;28;20046;-79
2022/04/23 10:35:30;;;;;;;12.32;9.68;;;18.10;92.10;;;;;;4995005;28;20045;-82
2022/04/23 10:37:56;;;;;;;11.32;9.73;;;18.60;92.60;;;;;;5012921;28;20093;-81
2022/04/23 10:40:22;;;;;;;9.75;8.85;;;18.40;92.10;;;;;;5012833;28;20135;-81
2022/04/23 10:43:06;;;;;;;10.23;8.68;;;18.60;91.80;;;;;;5013172;28;20121;-80
2022/04/23 10:45:32;;;;;;;10.68;9.68;;;18.80;91.20;;;;;;5013109;28;20061;-80
2022/04/23 10:48:24;;;;;;;14.88;8.57;;;18.50;91.90;;;;;;4995567;28;20050;-80
2022/04/23 10:50:59;;;;;;;11.13;9.90;;;18.80;90.70;;;;;;5012800;28;20089;-81
2022/04/23 10:53:50;;;;;;;10.80;9.70;;;18.80;92.50;;;;;;5022601;28;20436;-80
2022/04/23 10:56:17;;;;;;;10.82;9.77;;;19.00;91.60;;;;;;5011546;28;20049;-79
2022/04/23 10:58:43;;;;;;;10.00;9.00;;;19.00;91.30;;;;;;5020037;28;20049;-81
2022/04/23 11:01:25;;;;;;;10.27;9.27;;;19.30;91.10;;;;;;5020470;28;20379;-82
2022/04/23 11:04:07;;;;;;;11.10;9.95;;;18.40;91.20;;;;;;5027174;28;20049;-81
2022/04/23 11:12:34;;;;;;;11.43;10.23;;;18.50;91.80;;;;;;5026563;28;20104;-81
2022/04/23 11:15:00;;;;;;;11.15;9.88;;;18.20;91.70;;;;;;5022126;28;20145;-81
2022/04/23 11:17:32;;;;;;;9.95;9.10;;;18.00;92.70;;;;;;5020524;28;20064;-81
2022/04/23 11:19:58;;;;;;;10.93;9.80;;;17.90;92.40;;;;;;5000624;28;20095;-82
2022/04/23 11:22:24;;;;;;;12.23;10.85;;;17.80;92.40;;;;;;4986645;28;20033;-83
2022/04/23 11:24:51;;;;;;;13.55;9.23;;;17.30;92.20;;;;;;5022954;28;20049;-82
2022/04/23 11:27:28;;;;;;;10.85;9.80;;;17.40;92.30;;;;;;4989193;28;20129;-81
2022/04/23 11:29:56;;;;;;;11.07;9.98;;;17.70;91.80;;;;;;5002879;28;20065;-81
2022/04/23 11:32:28;;;;;;;11.80;10.20;;;17.60;92.00;;;;;;5021829;28;20093;-84
2022/04/23 11:34:57;;;;;;;12.13;10.80;;;17.40;92.00;;;;;;5005561;28;20037;-83
2022/04/23 11:37:35;;;;;;;12.68;10.98;;;17.50;93.10;;;;;;5005928;28;20108;-85
2022/04/23 11:40:10;;;;;;;11.30;10.15;;;17.20;92.50;;;;;;5010980;28;20042;-82
2022/04/23 11:42:37;;;;;;;11.48;10.40;;;17.60;92.30;;;;;;5006238;28;20112;-81
2022/04/23 11:45:03;;;;;;;13.20;9.90;;;17.20;91.70;;;;;;5020813;28;20497;-83
2022/04/23 11:47:29;;;;;;;10.85;9.75;;;17.20;92.30;;;;;;4994982;28;20108;-85
2022/04/23 11:50:16;;;;;;;13.75;9.23;;;17.30;91.70;;;;;;4978779;28;20049;-82
2022/04/23 11:52:44;;;;;;;10.80;9.70;;;17.50;91.70;;;;;;4994126;28;20084;-83
2022/04/23 11:55:21;;;;;;;12.00;9.52;;;17.50;91.40;;;;;;5016116;28;20049;-85
2022/04/23 11:58:00;;;;;;;9.43;7.95;;;17.50;91.40;;;;;;5002234;28;20100;-82
2022/04/23 12:00:26;;;;;;;8.55;7.32;;;17.40;90.60;;;;;;5014259;28;20081;-81
2022/04/23 12:02:52;;;;;;;12.23;9.50;;;17.60;90.40;;;;;;4988014;28;20111;-82
2022/04/23 12:05:34;;;;;;;13.68;9.18;;;17.40;90.60;;;;;;4995818;28;20050;-81
2022/04/23 12:08:00;;;;;;;13.75;8.05;;;17.60;91.50;;;;;;4993437;28;20053;-81
2022/04/23 12:10:27;;;;;;;12.27;8.02;;;17.80;90.70;;;;;;4992774;28;20054;-83
2022/04/23 12:12:55;;;;;;;8.95;8.00;;;18.10;90.50;;;;;;4993075;28;20042;-82
2022/04/23 12:15:21;;;;;;;9.43;8.50;;;18.30;89.90;;;;;;4974086;28;20138;-82
2022/04/23 12:17:51;;;;;;;9.38;8.45;;;18.00;90.00;;;;;;4973723;28;20133;-82
2022/04/23 12:20:24;;;;;;;9.65;6.85;;;18.00;90.70;;;;;;4993073;28;20053;-83
2022/04/23 12:23:00;;;;;;;10.77;8.30;;;18.20;90.10;;;;;;4999098;28;20093;-82
2022/04/23 12:25:27;;;;;;;8.55;7.35;;;17.80;88.90;;;;;;4997096;28;20049;-82
2022/04/23 12:27:56;;;;;;;8.38;6.53;;;17.80;89.70;;;;;;4996528;28;20054;-83
2022/04/23 12:42:06;;;;;;;11.10;7.75;;;17.90;88.60;;;;;;5004148;28;20046;-81
2022/04/23 12:44:37;;;;;;;8.75;7.82;;;17.60;88.10;;;;;;5003892;28;20533;-81
2022/04/23 12:47:13;;;;;;;9.25;7.10;;;18.00;89.60;;;;;;4966514;28;20038;-82
2022/04/23 12:49:56;;;;;;;7.65;6.80;;;18.00;89.20;;;;;;4974198;28;20133;-81
2022/04/23 12:52:41;;;;;;;8.13;6.85;;;18.00;86.70;;;;;;5006601;28;20375;-82
2022/04/23 12:55:28;;;;;;;9.15;6.38;;;18.10;88.10;;;;;;4996390;28;20130;-84
2022/04/23 12:58:03;;;;;;;8.98;7.82;;;17.90;87.50;;;;;;4998037;28;20091;-81
2022/04/23 13:00:36;;;;;;;8.23;6.38;;;17.90;89.60;;;;;;4992032;28;20054;-81
2022/04/23 13:03:35;;;;;;;8.82;7.70;;;18.40;89.40;;;;;;4977866;28;20055;-81
2022/04/23 13:06:03;;;;;;;10.60;7.15;;;18.00;87.90;;;;;;4994739;28;20046;-82
2022/04/23 13:11:30;;;;;;;8.77;6.47;;;18.20;86.10;;;;;;4995157;28;20054;-82
2022/04/23 13:14:04;;;;;;;8.45;6.85;;;18.20;86.70;;;;;;4993137;28;20050;-82
2022/04/23 13:16:32;;;;;;;10.10;6.70;;;18.30;86.90;;;;;;4979638;28;20058;-82